sensor_id;sensor_type;location;lat;lon;timestamp;P1;durP1;ratioP1;P2;durP2;ratioP2
25191;SDS011;13143;50.924;5.320;2023-06-22T00:00:48;15.45;;;5.65;;
25191;SDS011;13143;50.924;5.320;2023-06-22T00:03:15;11.77;;;5.55;;
25191;SDS011;13143;50.924;5.320;2023-06-22T00:05:43;15.00;;;6.28;;
25191;SDS011;13143;50.924;5.320;2023-06-22T00:08:09;15.23;;;5.65;;
25191;SDS011;13143;50.924;5.320;2023-06-22T00:10:35;18.02;;;6.13;;
25191;SDS011;13143;50.924;5.320;2023-06-22T00:13:02;21.25;;;6.25;;
25191;SDS011;13143;50.924;5.320;2023-06-22T00:15:28;20.98;;;6.50;;
25191;SDS011;13143;50.924;5.320;2023-06-22T00:17:54;18.20;;;6.50;;
25191;SDS011;13143;50.924;5.320;2023-06-22T00:20:22;20.63;;;6.53;;
25191;SDS011;13143;50.924;5.320;2023-06-22T00:22:53;23.50;;;7.78;;
25191;SDS011;13143;50.924;5.320;2023-06-22T00:25:20;19.63;;;7.43;;
25191;SDS011;13143;50.924;5.320;2023-06-22T00:27:47;23.80;;;7.15;;
25191;SDS011;13143;50.924;5.320;2023-06-22T00:30:15;24.25;;;7.18;;
25191;SDS011;13143;50.924;5.320;2023-06-22T00:32:42;24.77;;;7.95;;
25191;SDS011;13143;50.924;5.320;2023-06-22T00:35:08;33.38;;;9.65;;
25191;SDS011;13143;50.924;5.320;2023-06-22T00:37:38;50.85;;;12.95;;
25191;SDS011;13143;50.924;5.320;2023-06-22T00:40:10;70.65;;;15.85;;
25191;SDS011;13143;50.924;5.320;2023-06-22T00:42:40;89.35;;;21.08;;
25191;SDS011;13143;50.924;5.320;2023-06-22T00:45:07;92.93;;;22.42;;
25191;SDS011;13143;50.924;5.320;2023-06-22T00:47:36;104.00;;;24.10;;
25191;SDS011;13143;50.924;5.320;2023-06-22T00:50:03;100.70;;;23.05;;
25191;SDS011;13143;50.924;5.320;2023-06-22T00:52:32;119.55;;;25.80;;
25191;SDS011;13143;50.924;5.320;2023-06-22T00:55:02;99.35;;;25.33;;
25191;SDS011;13143;50.924;5.320;2023-06-22T00:57:29;104.68;;;23.85;;
25191;SDS011;13143;50.924;5.320;2023-06-22T00:59:56;88.50;;;21.38;;
25191;SDS011;13143;50.924;5.320;2023-06-22T01:02:22;80.70;;;20.42;;
25191;SDS011;13143;50.924;5.320;2023-06-22T01:04:48;95.20;;;21.13;;
25191;SDS011;13143;50.924;5.320;2023-06-22T01:12:32;83.85;;;21.42;;
25191;SDS011;13143;50.924;5.320;2023-06-22T01:15:13;73.97;;;18.23;;
25191;SDS011;13143;50.924;5.320;2023-06-22T01:17:44;82.65;;;19.65;;
25191;SDS011;13143;50.924;5.320;2023-06-22T01:20:12;74.90;;;19.38;;
25191;SDS011;13143;50.924;5.320;2023-06-22T01:23:16;78.70;;;19.02;;
25191;SDS011;13143;50.924;5.320;2023-06-22T01:25:51;85.22;;;19.00;;
25191;SDS011;13143;50.924;5.320;2023-06-22T01:28:33;79.72;;;19.50;;
25191;SDS011;13143;50.924;5.320;2023-06-22T01:33:47;60.58;;;16.92;;
25191;SDS011;13143;50.924;5.320;2023-06-22T01:36:17;67.82;;;17.40;;
25191;SDS011;13143;50.924;5.320;2023-06-22T01:38:44;61.53;;;15.88;;
25191;SDS011;13143;50.924;5.320;2023-06-22T01:41:11;58.45;;;15.38;;
25191;SDS011;13143;50.924;5.320;2023-06-22T01:43:38;60.60;;;15.88;;
25191;SDS011;13143;50.924;5.320;2023-06-22T01:46:05;58.70;;;15.75;;
25191;SDS011;13143;50.924;5.320;2023-06-22T01:48:31;56.17;;;14.88;;
25191;SDS011;13143;50.924;5.320;2023-06-22T01:50:58;58.85;;;15.85;;
25191;SDS011;13143;50.924;5.320;2023-06-22T01:53:24;53.05;;;14.52;;
25191;SDS011;13143;50.924;5.320;2023-06-22T01:55:51;61.70;;;15.57;;
25191;SDS011;13143;50.924;5.320;2023-06-22T01:58:17;64.35;;;15.15;;
25191;SDS011;13143;50.924;5.320;2023-06-22T02:00:51;52.80;;;14.57;;
25191;SDS011;13143;50.924;5.320;2023-06-22T02:03:24;52.33;;;15.07;;
25191;SDS011;13143;50.924;5.320;2023-06-22T02:05:56;44.05;;;12.98;;
25191;SDS011;13143;50.924;5.320;2023-06-22T02:08:29;47.08;;;13.50;;
25191;SDS011;13143;50.924;5.320;2023-06-22T02:11:00;35.42;;;11.20;;
25191;SDS011;13143;50.924;5.320;2023-06-22T02:13:28;27.08;;;10.02;;
25191;SDS011;13143;50.924;5.320;2023-06-22T02:15:56;31.75;;;10.27;;
25191;SDS011;13143;50.924;5.320;2023-06-22T02:18:23;29.35;;;10.63;;
25191;SDS011;13143;50.924;5.320;2023-06-22T02:20:49;30.52;;;10.60;;
25191;SDS011;13143;50.924;5.320;2023-06-22T02:23:15;24.98;;;9.95;;
25191;SDS011;13143;50.924;5.320;2023-06-22T02:25:41;26.77;;;10.10;;
25191;SDS011;13143;50.924;5.320;2023-06-22T02:28:09;24.00;;;11.60;;
25191;SDS011;13143;50.924;5.320;2023-06-22T02:30:36;23.67;;;10.07;;
25191;SDS011;13143;50.924;5.320;2023-06-22T02:33:02;22.48;;;10.88;;
25191;SDS011;13143;50.924;5.320;2023-06-22T02:35:28;18.17;;;9.95;;
25191;SDS011;13143;50.924;5.320;2023-06-22T02:38:01;15.07;;;9.57;;
25191;SDS011;13143;50.924;5.320;2023-06-22T02:40:29;15.98;;;9.30;;
25191;SDS011;13143;50.924;5.320;2023-06-22T02:42:56;18.25;;;10.50;;
25191;SDS011;13143;50.924;5.320;2023-06-22T02:45:23;20.73;;;11.50;;
25191;SDS011;13143;50.924;5.320;2023-06-22T02:47:49;18.00;;;12.27;;
25191;SDS011;13143;50.924;5.320;2023-06-22T02:50:16;22.80;;;13.30;;
25191;SDS011;13143;50.924;5.320;2023-06-22T02:52:42;17.77;;;12.30;;
25191;SDS011;13143;50.924;5.320;2023-06-22T02:55:08;21.95;;;12.95;;
25191;SDS011;13143;50.924;5.320;2023-06-22T02:57:34;25.58;;;14.13;;
25191;SDS011;13143;50.924;5.320;2023-06-22T03:00:02;24.23;;;14.27;;
25191;SDS011;13143;50.924;5.320;2023-06-22T03:02:37;25.27;;;14.13;;
25191;SDS011;13143;50.924;5.320;2023-06-22T03:05:03;26.40;;;14.57;;
25191;SDS011;13143;50.924;5.320;2023-06-22T03:07:31;25.50;;;15.48;;
25191;SDS011;13143;50.924;5.320;2023-06-22T03:09:59;23.77;;;15.27;;
25191;SDS011;13143;50.924;5.320;2023-06-22T03:12:25;23.38;;;15.65;;
25191;SDS011;13143;50.924;5.320;2023-06-22T03:14:51;25.70;;;15.73;;
25191;SDS011;13143;50.924;5.320;2023-06-22T03:17:17;29.50;;;15.65;;
25191;SDS011;13143;50.924;5.320;2023-06-22T03:19:43;23.90;;;15.52;;
25191;SDS011;13143;50.924;5.320;2023-06-22T03:22:09;26.60;;;15.65;;
25191;SDS011;13143;50.924;5.320;2023-06-22T03:24:36;26.60;;;15.57;;
25191;SDS011;13143;50.924;5.320;2023-06-22T03:27:04;27.52;;;16.58;;
25191;SDS011;13143;50.924;5.320;2023-06-22T03:29:31;28.23;;;17.88;;
25191;SDS011;13143;50.924;5.320;2023-06-22T03:31:57;27.10;;;17.08;;
25191;SDS011;13143;50.924;5.320;2023-06-22T03:34:23;27.55;;;15.75;;
25191;SDS011;13143;50.924;5.320;2023-06-22T03:36:49;24.88;;;16.23;;
25191;SDS011;13143;50.924;5.320;2023-06-22T03:39:16;26.23;;;17.50;;
25191;SDS011;13143;50.924;5.320;2023-06-22T03:41:42;28.75;;;17.55;;
25191;SDS011;13143;50.924;5.320;2023-06-22T03:44:08;26.42;;;17.58;;
25191;SDS011;13143;50.924;5.320;2023-06-22T03:46:37;27.83;;;19.08;;
25191;SDS011;13143;50.924;5.320;2023-06-22T03:49:06;27.55;;;19.23;;
25191;SDS011;13143;50.924;5.320;2023-06-22T03:51:33;28.83;;;18.75;;
25191;SDS011;13143;50.924;5.320;2023-06-22T03:53:59;24.67;;;18.73;;
25191;SDS011;13143;50.924;5.320;2023-06-22T03:56:26;27.20;;;17.60;;
25191;SDS011;13143;50.924;5.320;2023-06-22T03:58:52;26.17;;;18.15;;
25191;SDS011;13143;50.924;5.320;2023-06-22T04:01:18;31.27;;;18.35;;
25191;SDS011;13143;50.924;5.320;2023-06-22T04:03:44;25.65;;;17.92;;
25191;SDS011;13143;50.924;5.320;2023-06-22T04:06:13;25.25;;;17.92;;
25191;SDS011;13143;50.924;5.320;2023-06-22T04:08:39;29.75;;;18.90;;
25191;SDS011;13143;50.924;5.320;2023-06-22T04:11:06;23.50;;;16.10;;
25191;SDS011;13143;50.924;5.320;2023-06-22T04:13:32;23.40;;;17.08;;
25191;SDS011;13143;50.924;5.320;2023-06-22T04:15:58;24.92;;;16.83;;
25191;SDS011;13143;50.924;5.320;2023-06-22T04:18:26;34.03;;;17.17;;
25191;SDS011;13143;50.924;5.320;2023-06-22T04:20:52;26.45;;;16.13;;
25191;SDS011;13143;50.924;5.320;2023-06-22T04:23:18;28.90;;;16.98;;
25191;SDS011;13143;50.924;5.320;2023-06-22T04:25:45;28.45;;;17.23;;
25191;SDS011;13143;50.924;5.320;2023-06-22T04:28:11;23.60;;;16.05;;
25191;SDS011;13143;50.924;5.320;2023-06-22T04:30:38;23.98;;;15.57;;
25191;SDS011;13143;50.924;5.320;2023-06-22T04:33:12;25.98;;;16.10;;
25191;SDS011;13143;50.924;5.320;2023-06-22T04:35:39;29.88;;;16.88;;
25191;SDS011;13143;50.924;5.320;2023-06-22T04:38:07;27.75;;;16.17;;
25191;SDS011;13143;50.924;5.320;2023-06-22T04:40:33;27.70;;;17.50;;
25191;SDS011;13143;50.924;5.320;2023-06-22T04:42:59;26.75;;;16.67;;
25191;SDS011;13143;50.924;5.320;2023-06-22T04:45:28;29.88;;;21.40;;
25191;SDS011;13143;50.924;5.320;2023-06-22T04:47:57;26.80;;;17.05;;
25191;SDS011;13143;50.924;5.320;2023-06-22T04:50:23;32.03;;;21.02;;
25191;SDS011;13143;50.924;5.320;2023-06-22T04:52:50;37.08;;;23.08;;
25191;SDS011;13143;50.924;5.320;2023-06-22T04:55:17;36.45;;;24.63;;
25191;SDS011;13143;50.924;5.320;2023-06-22T04:57:45;31.83;;;24.00;;
25191;SDS011;13143;50.924;5.320;2023-06-22T05:00:15;29.58;;;22.42;;
25191;SDS011;13143;50.924;5.320;2023-06-22T05:02:44;33.58;;;23.60;;
25191;SDS011;13143;50.924;5.320;2023-06-22T05:05:12;35.97;;;24.88;;
25191;SDS011;13143;50.924;5.320;2023-06-22T05:07:40;27.65;;;22.17;;
25191;SDS011;13143;50.924;5.320;2023-06-22T05:10:10;27.70;;;21.15;;
25191;SDS011;13143;50.924;5.320;2023-06-22T05:12:40;24.52;;;20.35;;
25191;SDS011;13143;50.924;5.320;2023-06-22T05:15:07;27.88;;;20.60;;
25191;SDS011;13143;50.924;5.320;2023-06-22T05:17:34;28.08;;;19.77;;
25191;SDS011;13143;50.924;5.320;2023-06-22T05:20:01;26.25;;;19.83;;
25191;SDS011;13143;50.924;5.320;2023-06-22T05:22:31;28.08;;;20.30;;
25191;SDS011;13143;50.924;5.320;2023-06-22T05:24:58;25.80;;;19.90;;
25191;SDS011;13143;50.924;5.320;2023-06-22T05:27:24;23.63;;;19.05;;
25191;SDS011;13143;50.924;5.320;2023-06-22T05:29:50;26.75;;;20.13;;
25191;SDS011;13143;50.924;5.320;2023-06-22T05:32:16;28.13;;;20.17;;
25191;SDS011;13143;50.924;5.320;2023-06-22T05:34:42;26.45;;;20.20;;
25191;SDS011;13143;50.924;5.320;2023-06-22T05:37:08;27.75;;;21.65;;
25191;SDS011;13143;50.924;5.320;2023-06-22T05:39:35;25.95;;;21.90;;
25191;SDS011;13143;50.924;5.320;2023-06-22T05:42:04;28.50;;;21.67;;
25191;SDS011;13143;50.924;5.320;2023-06-22T05:44:31;29.83;;;22.85;;
25191;SDS011;13143;50.924;5.320;2023-06-22T05:46:59;31.67;;;22.75;;
25191;SDS011;13143;50.924;5.320;2023-06-22T05:49:25;35.83;;;23.90;;
25191;SDS011;13143;50.924;5.320;2023-06-22T05:51:55;30.45;;;22.60;;
25191;SDS011;13143;50.924;5.320;2023-06-22T05:54:22;30.15;;;21.88;;
25191;SDS011;13143;50.924;5.320;2023-06-22T05:56:48;33.55;;;23.15;;
25191;SDS011;13143;50.924;5.320;2023-06-22T05:59:14;31.23;;;22.88;;
25191;SDS011;13143;50.924;5.320;2023-06-22T06:01:40;29.38;;;23.63;;
25191;SDS011;13143;50.924;5.320;2023-06-22T06:04:06;31.77;;;23.73;;
25191;SDS011;13143;50.924;5.320;2023-06-22T06:06:35;36.13;;;23.95;;
25191;SDS011;13143;50.924;5.320;2023-06-22T06:09:03;32.00;;;24.30;;
25191;SDS011;13143;50.924;5.320;2023-06-22T06:11:30;36.03;;;24.10;;
25191;SDS011;13143;50.924;5.320;2023-06-22T06:13:56;32.80;;;24.17;;
25191;SDS011;13143;50.924;5.320;2023-06-22T06:16:23;34.47;;;24.35;;
25191;SDS011;13143;50.924;5.320;2023-06-22T06:18:49;31.73;;;24.75;;
25191;SDS011;13143;50.924;5.320;2023-06-22T06:21:16;31.38;;;23.40;;
25191;SDS011;13143;50.924;5.320;2023-06-22T06:23:42;35.20;;;23.85;;
25191;SDS011;13143;50.924;5.320;2023-06-22T06:26:08;28.30;;;23.75;;
25191;SDS011;13143;50.924;5.320;2023-06-22T06:28:34;35.22;;;26.83;;
25191;SDS011;13143;50.924;5.320;2023-06-22T06:31:01;34.55;;;24.38;;
25191;SDS011;13143;50.924;5.320;2023-06-22T06:33:27;33.15;;;25.15;;
25191;SDS011;13143;50.924;5.320;2023-06-22T06:35:53;35.88;;;25.58;;
25191;SDS011;13143;50.924;5.320;2023-06-22T06:38:21;31.30;;;24.85;;
25191;SDS011;13143;50.924;5.320;2023-06-22T06:40:47;34.63;;;25.45;;
25191;SDS011;13143;50.924;5.320;2023-06-22T06:43:14;35.38;;;25.42;;
25191;SDS011;13143;50.924;5.320;2023-06-22T06:45:40;35.33;;;24.73;;
25191;SDS011;13143;50.924;5.320;2023-06-22T06:48:06;39.28;;;26.13;;
25191;SDS011;13143;50.924;5.320;2023-06-22T06:50:32;38.10;;;25.25;;
25191;SDS011;13143;50.924;5.320;2023-06-22T06:52:59;35.75;;;25.83;;
25191;SDS011;13143;50.924;5.320;2023-06-22T06:55:25;35.38;;;25.35;;
25191;SDS011;13143;50.924;5.320;2023-06-22T06:57:51;34.47;;;25.63;;
25191;SDS011;13143;50.924;5.320;2023-06-22T07:00:18;36.40;;;25.30;;
25191;SDS011;13143;50.924;5.320;2023-06-22T07:02:44;29.02;;;24.45;;
25191;SDS011;13143;50.924;5.320;2023-06-22T07:05:13;34.60;;;26.73;;
25191;SDS011;13143;50.924;5.320;2023-06-22T07:07:39;35.00;;;26.30;;
25191;SDS011;13143;50.924;5.320;2023-06-22T07:10:07;34.13;;;26.83;;
25191;SDS011;13143;50.924;5.320;2023-06-22T07:12:33;34.72;;;26.63;;
25191;SDS011;13143;50.924;5.320;2023-06-22T07:17:30;36.30;;;25.25;;
25191;SDS011;13143;50.924;5.320;2023-06-22T07:19:57;34.20;;;25.23;;
25191;SDS011;13143;50.924;5.320;2023-06-22T07:22:23;33.58;;;24.23;;
25191;SDS011;13143;50.924;5.320;2023-06-22T07:24:49;33.63;;;23.90;;
25191;SDS011;13143;50.924;5.320;2023-06-22T07:27:15;32.50;;;24.02;;
25191;SDS011;13143;50.924;5.320;2023-06-22T07:29:44;29.17;;;23.77;;
25191;SDS011;13143;50.924;5.320;2023-06-22T07:32:11;30.63;;;23.30;;
25191;SDS011;13143;50.924;5.320;2023-06-22T07:34:37;33.55;;;23.50;;
25191;SDS011;13143;50.924;5.320;2023-06-22T07:37:03;35.17;;;24.50;;
25191;SDS011;13143;50.924;5.320;2023-06-22T07:39:30;32.10;;;23.95;;
25191;SDS011;13143;50.924;5.320;2023-06-22T07:41:56;39.90;;;24.67;;
25191;SDS011;13143;50.924;5.320;2023-06-22T07:44:22;40.47;;;24.50;;
25191;SDS011;13143;50.924;5.320;2023-06-22T07:46:49;34.55;;;24.05;;
25191;SDS011;13143;50.924;5.320;2023-06-22T07:49:16;35.47;;;24.30;;
25191;SDS011;13143;50.924;5.320;2023-06-22T07:51:43;38.13;;;25.48;;
25191;SDS011;13143;50.924;5.320;2023-06-22T07:54:09;39.17;;;25.95;;
25191;SDS011;13143;50.924;5.320;2023-06-22T07:56:36;35.20;;;25.17;;
25191;SDS011;13143;50.924;5.320;2023-06-22T07:59:02;40.63;;;26.75;;
25191;SDS011;13143;50.924;5.320;2023-06-22T08:01:29;34.33;;;26.45;;
25191;SDS011;13143;50.924;5.320;2023-06-22T08:03:55;40.80;;;26.55;;
25191;SDS011;13143;50.924;5.320;2023-06-22T08:06:22;38.78;;;27.23;;
25191;SDS011;13143;50.924;5.320;2023-06-22T08:08:48;41.65;;;27.33;;
25191;SDS011;13143;50.924;5.320;2023-06-22T08:11:14;38.38;;;26.30;;
25191;SDS011;13143;50.924;5.320;2023-06-22T08:13:40;36.92;;;27.98;;
25191;SDS011;13143;50.924;5.320;2023-06-22T08:16:06;38.33;;;27.88;;
25191;SDS011;13143;50.924;5.320;2023-06-22T08:18:33;40.05;;;26.65;;
25191;SDS011;13143;50.924;5.320;2023-06-22T08:20:59;38.22;;;27.58;;
25191;SDS011;13143;50.924;5.320;2023-06-22T08:23:28;39.17;;;26.30;;
25191;SDS011;13143;50.924;5.320;2023-06-22T08:25:54;38.17;;;25.83;;
25191;SDS011;13143;50.924;5.320;2023-06-22T08:28:21;32.17;;;26.77;;
25191;SDS011;13143;50.924;5.320;2023-06-22T08:30:47;40.53;;;27.73;;
25191;SDS011;13143;50.924;5.320;2023-06-22T08:33:13;36.47;;;27.80;;
25191;SDS011;13143;50.924;5.320;2023-06-22T08:35:39;33.80;;;27.13;;
25191;SDS011;13143;50.924;5.320;2023-06-22T08:38:05;38.75;;;27.25;;
25191;SDS011;13143;50.924;5.320;2023-06-22T08:40:31;35.70;;;26.70;;
25191;SDS011;13143;50.924;5.320;2023-06-22T08:42:58;37.50;;;28.80;;
25191;SDS011;13143;50.924;5.320;2023-06-22T08:45:24;33.85;;;26.65;;
25191;SDS011;13143;50.924;5.320;2023-06-22T08:47:50;33.65;;;26.73;;
25191;SDS011;13143;50.924;5.320;2023-06-22T08:50:16;35.47;;;27.10;;
25191;SDS011;13143;50.924;5.320;2023-06-22T08:52:42;39.63;;;27.52;;
25191;SDS011;13143;50.924;5.320;2023-06-22T08:55:09;36.90;;;27.45;;
25191;SDS011;13143;50.924;5.320;2023-06-22T08:57:36;35.05;;;28.13;;
25191;SDS011;13143;50.924;5.320;2023-06-22T09:00:07;33.25;;;27.42;;
25191;SDS011;13143;50.924;5.320;2023-06-22T09:02:40;39.22;;;29.45;;
25191;SDS011;13143;50.924;5.320;2023-06-22T09:05:06;36.30;;;28.48;;
25191;SDS011;13143;50.924;5.320;2023-06-22T09:07:33;34.05;;;27.83;;
25191;SDS011;13143;50.924;5.320;2023-06-22T09:10:00;32.05;;;28.00;;
25191;SDS011;13143;50.924;5.320;2023-06-22T09:12:26;40.35;;;30.35;;
25191;SDS011;13143;50.924;5.320;2023-06-22T09:14:53;34.67;;;28.67;;
25191;SDS011;13143;50.924;5.320;2023-06-22T09:17:19;35.80;;;28.80;;
25191;SDS011;13143;50.924;5.320;2023-06-22T09:19:45;39.15;;;29.10;;
25191;SDS011;13143;50.924;5.320;2023-06-22T09:22:13;39.78;;;30.45;;
25191;SDS011;13143;50.924;5.320;2023-06-22T09:24:39;35.63;;;29.73;;
25191;SDS011;13143;50.924;5.320;2023-06-22T09:27:05;40.85;;;30.30;;
25191;SDS011;13143;50.924;5.320;2023-06-22T09:29:31;36.85;;;29.88;;
25191;SDS011;13143;50.924;5.320;2023-06-22T09:31:59;37.13;;;29.38;;
25191;SDS011;13143;50.924;5.320;2023-06-22T09:34:26;39.47;;;30.85;;
25191;SDS011;13143;50.924;5.320;2023-06-22T09:36:52;35.28;;;29.88;;
25191;SDS011;13143;50.924;5.320;2023-06-22T09:39:18;36.35;;;30.00;;
25191;SDS011;13143;50.924;5.320;2023-06-22T09:41:44;43.42;;;32.20;;
25191;SDS011;13143;50.924;5.320;2023-06-22T09:44:10;42.70;;;31.15;;
25191;SDS011;13143;50.924;5.320;2023-06-22T09:46:36;41.30;;;31.30;;
25191;SDS011;13143;50.924;5.320;2023-06-22T09:49:03;41.63;;;30.67;;
25191;SDS011;13143;50.924;5.320;2023-06-22T09:51:29;38.78;;;31.60;;
25191;SDS011;13143;50.924;5.320;2023-06-22T09:53:55;40.17;;;31.15;;
25191;SDS011;13143;50.924;5.320;2023-06-22T09:56:21;41.03;;;32.50;;
25191;SDS011;13143;50.924;5.320;2023-06-22T09:58:48;40.90;;;32.40;;
25191;SDS011;13143;50.924;5.320;2023-06-22T10:01:15;41.53;;;32.63;;
25191;SDS011;13143;50.924;5.320;2023-06-22T10:03:41;41.63;;;33.58;;
25191;SDS011;13143;50.924;5.320;2023-06-22T10:06:08;41.97;;;34.58;;
25191;SDS011;13143;50.924;5.320;2023-06-22T10:08:34;42.70;;;34.13;;
25191;SDS011;13143;50.924;5.320;2023-06-22T10:11:01;41.35;;;34.90;;
25191;SDS011;13143;50.924;5.320;2023-06-22T10:13:28;45.53;;;36.20;;
25191;SDS011;13143;50.924;5.320;2023-06-22T10:15:54;44.65;;;35.63;;
25191;SDS011;13143;50.924;5.320;2023-06-22T10:18:21;40.53;;;33.78;;
25191;SDS011;13143;50.924;5.320;2023-06-22T10:20:48;49.92;;;35.03;;
25191;SDS011;13143;50.924;5.320;2023-06-22T10:23:19;42.33;;;35.67;;
25191;SDS011;13143;50.924;5.320;2023-06-22T10:25:46;44.88;;;35.83;;
25191;SDS011;13143;50.924;5.320;2023-06-22T10:28:15;39.65;;;34.28;;
25191;SDS011;13143;50.924;5.320;2023-06-22T10:30:41;44.00;;;36.30;;
25191;SDS011;13143;50.924;5.320;2023-06-22T10:33:08;49.28;;;38.38;;
25191;SDS011;13143;50.924;5.320;2023-06-22T10:35:35;47.42;;;38.97;;
25191;SDS011;13143;50.924;5.320;2023-06-22T10:38:05;46.75;;;37.38;;
25191;SDS011;13143;50.924;5.320;2023-06-22T10:40:31;49.63;;;38.47;;
25191;SDS011;13143;50.924;5.320;2023-06-22T10:42:57;50.75;;;39.08;;
25191;SDS011;13143;50.924;5.320;2023-06-22T10:45:24;48.15;;;39.08;;
25191;SDS011;13143;50.924;5.320;2023-06-22T10:47:50;48.20;;;40.05;;
25191;SDS011;13143;50.924;5.320;2023-06-22T10:50:16;49.63;;;39.40;;
25191;SDS011;13143;50.924;5.320;2023-06-22T10:52:43;51.97;;;40.70;;
25191;SDS011;13143;50.924;5.320;2023-06-22T10:55:09;50.78;;;41.10;;
25191;SDS011;13143;50.924;5.320;2023-06-22T10:57:36;48.70;;;40.30;;
25191;SDS011;13143;50.924;5.320;2023-06-22T11:00:02;53.22;;;40.58;;
25191;SDS011;13143;50.924;5.320;2023-06-22T11:02:32;46.90;;;40.13;;
25191;SDS011;13143;50.924;5.320;2023-06-22T11:04:58;48.60;;;39.95;;
25191;SDS011;13143;50.924;5.320;2023-06-22T11:07:26;52.30;;;41.28;;
25191;SDS011;13143;50.924;5.320;2023-06-22T11:09:54;49.97;;;40.95;;
25191;SDS011;13143;50.924;5.320;2023-06-22T11:12:20;50.28;;;42.40;;
25191;SDS011;13143;50.924;5.320;2023-06-22T11:14:47;54.92;;;41.95;;
25191;SDS011;13143;50.924;5.320;2023-06-22T11:17:15;53.20;;;42.10;;
25191;SDS011;13143;50.924;5.320;2023-06-22T11:19:41;55.50;;;42.80;;
25191;SDS011;13143;50.924;5.320;2023-06-22T11:22:07;49.72;;;42.08;;
25191;SDS011;13143;50.924;5.320;2023-06-22T11:24:33;50.65;;;42.83;;
25191;SDS011;13143;50.924;5.320;2023-06-22T11:27:00;53.25;;;43.58;;
25191;SDS011;13143;50.924;5.320;2023-06-22T11:29:26;53.35;;;43.88;;
25191;SDS011;13143;50.924;5.320;2023-06-22T11:31:52;51.42;;;44.28;;
25191;SDS011;13143;50.924;5.320;2023-06-22T11:34:18;55.13;;;44.35;;
25191;SDS011;13143;50.924;5.320;2023-06-22T11:36:44;59.80;;;43.60;;
25191;SDS011;13143;50.924;5.320;2023-06-22T11:39:11;49.58;;;44.25;;
25191;SDS011;13143;50.924;5.320;2023-06-22T11:41:39;53.50;;;43.60;;
25191;SDS011;13143;50.924;5.320;2023-06-22T11:44:06;48.38;;;41.75;;
25191;SDS011;13143;50.924;5.320;2023-06-22T11:46:32;53.00;;;43.08;;
25191;SDS011;13143;50.924;5.320;2023-06-22T11:48:58;48.35;;;42.55;;
25191;SDS011;13143;50.924;5.320;2023-06-22T11:51:25;52.53;;;44.08;;
25191;SDS011;13143;50.924;5.320;2023-06-22T11:53:51;53.85;;;42.35;;
25191;SDS011;13143;50.924;5.320;2023-06-22T11:56:17;50.03;;;42.15;;
25191;SDS011;13143;50.924;5.320;2023-06-22T11:58:43;63.92;;;44.03;;
25191;SDS011;13143;50.924;5.320;2023-06-22T12:01:09;50.38;;;41.53;;
25191;SDS011;13143;50.924;5.320;2023-06-22T12:03:35;51.80;;;41.67;;
25191;SDS011;13143;50.924;5.320;2023-06-22T12:06:02;48.10;;;40.22;;
25191;SDS011;13143;50.924;5.320;2023-06-22T12:08:28;44.97;;;40.05;;
25191;SDS011;13143;50.924;5.320;2023-06-22T12:10:54;49.17;;;41.53;;
25191;SDS011;13143;50.924;5.320;2023-06-22T12:13:20;50.30;;;41.45;;
25191;SDS011;13143;50.924;5.320;2023-06-22T12:15:46;49.65;;;40.70;;
25191;SDS011;13143;50.924;5.320;2023-06-22T12:18:12;55.40;;;42.92;;
25191;SDS011;13143;50.924;5.320;2023-06-22T12:20:42;49.13;;;42.05;;
25191;SDS011;13143;50.924;5.320;2023-06-22T12:23:08;48.35;;;42.55;;
25191;SDS011;13143;50.924;5.320;2023-06-22T12:25:34;51.35;;;42.17;;
25191;SDS011;13143;50.924;5.320;2023-06-22T12:28:00;53.80;;;43.72;;
25191;SDS011;13143;50.924;5.320;2023-06-22T12:30:26;53.92;;;44.22;;
25191;SDS011;13143;50.924;5.320;2023-06-22T12:32:53;49.13;;;43.05;;
25191;SDS011;13143;50.924;5.320;2023-06-22T12:35:19;51.17;;;43.42;;
25191;SDS011;13143;50.924;5.320;2023-06-22T12:37:45;52.08;;;43.65;;
25191;SDS011;13143;50.924;5.320;2023-06-22T12:40:11;49.30;;;43.35;;
25191;SDS011;13143;50.924;5.320;2023-06-22T12:42:38;53.72;;;43.47;;
25191;SDS011;13143;50.924;5.320;2023-06-22T12:45:05;53.05;;;43.25;;
25191;SDS011;13143;50.924;5.320;2023-06-22T12:47:32;52.58;;;43.92;;
25191;SDS011;13143;50.924;5.320;2023-06-22T12:49:58;53.72;;;44.80;;
25191;SDS011;13143;50.924;5.320;2023-06-22T12:52:24;53.25;;;44.47;;
25191;SDS011;13143;50.924;5.320;2023-06-22T12:54:50;50.80;;;44.35;;
25191;SDS011;13143;50.924;5.320;2023-06-22T12:57:17;53.92;;;44.83;;
25191;SDS011;13143;50.924;5.320;2023-06-22T12:59:45;49.13;;;43.75;;
25191;SDS011;13143;50.924;5.320;2023-06-22T13:02:11;51.88;;;43.42;;
25191;SDS011;13143;50.924;5.320;2023-06-22T13:04:37;52.55;;;45.28;;
25191;SDS011;13143;50.924;5.320;2023-06-22T13:07:03;49.03;;;43.53;;
25191;SDS011;13143;50.924;5.320;2023-06-22T13:09:30;47.70;;;41.50;;
25191;SDS011;13143;50.924;5.320;2023-06-22T13:11:56;52.95;;;41.70;;
25191;SDS011;13143;50.924;5.320;2023-06-22T13:14:22;49.50;;;41.05;;
25191;SDS011;13143;50.924;5.320;2023-06-22T13:16:49;50.38;;;41.15;;
25191;SDS011;13143;50.924;5.320;2023-06-22T13:19:15;43.30;;;38.15;;
25191;SDS011;13143;50.924;5.320;2023-06-22T13:21:41;44.67;;;38.00;;
25191;SDS011;13143;50.924;5.320;2023-06-22T13:24:07;44.28;;;37.78;;
25191;SDS011;13143;50.924;5.320;2023-06-22T13:26:34;41.85;;;35.40;;
25191;SDS011;13143;50.924;5.320;2023-06-22T13:29:00;39.88;;;35.50;;
25191;SDS011;13143;50.924;5.320;2023-06-22T13:31:26;41.00;;;34.42;;
25191;SDS011;13143;50.924;5.320;2023-06-22T13:33:52;36.67;;;32.72;;
25191;SDS011;13143;50.924;5.320;2023-06-22T13:36:18;43.53;;;31.33;;
25191;SDS011;13143;50.924;5.320;2023-06-22T13:38:45;37.58;;;30.88;;
25191;SDS011;13143;50.924;5.320;2023-06-22T13:41:11;34.08;;;30.48;;
25191;SDS011;13143;50.924;5.320;2023-06-22T13:43:37;34.00;;;28.08;;
25191;SDS011;13143;50.924;5.320;2023-06-22T13:46:03;34.08;;;28.60;;
25191;SDS011;13143;50.924;5.320;2023-06-22T13:48:29;32.53;;;27.25;;
25191;SDS011;13143;50.924;5.320;2023-06-22T13:50:55;34.80;;;30.83;;
25191;SDS011;13143;50.924;5.320;2023-06-22T13:53:24;36.45;;;30.10;;
25191;SDS011;13143;50.924;5.320;2023-06-22T13:55:51;41.85;;;31.50;;
25191;SDS011;13143;50.924;5.320;2023-06-22T13:58:17;35.78;;;30.92;;
25191;SDS011;13143;50.924;5.320;2023-06-22T14:00:45;39.65;;;31.23;;
25191;SDS011;13143;50.924;5.320;2023-06-22T14:03:11;39.50;;;32.63;;
25191;SDS011;13143;50.924;5.320;2023-06-22T14:05:41;44.47;;;33.22;;
25191;SDS011;13143;50.924;5.320;2023-06-22T14:08:08;39.35;;;33.80;;
25191;SDS011;13143;50.924;5.320;2023-06-22T14:10:34;38.22;;;32.50;;
25191;SDS011;13143;50.924;5.320;2023-06-22T14:13:01;39.35;;;33.70;;
25191;SDS011;13143;50.924;5.320;2023-06-22T14:15:27;42.00;;;34.47;;
25191;SDS011;13143;50.924;5.320;2023-06-22T14:17:53;40.25;;;34.75;;
25191;SDS011;13143;50.924;5.320;2023-06-22T14:20:19;45.05;;;36.58;;
25191;SDS011;13143;50.924;5.320;2023-06-22T14:22:45;40.25;;;34.80;;
25191;SDS011;13143;50.924;5.320;2023-06-22T14:25:11;38.63;;;32.85;;
25191;SDS011;13143;50.924;5.320;2023-06-22T14:27:37;37.75;;;32.63;;
25191;SDS011;13143;50.924;5.320;2023-06-22T14:30:03;37.33;;;33.30;;